Elgin, Pennsylvania
Current Conditions -  °F | °C
As of 10:51 PM on Tuesday 25 Nov 2014 (Local Time) from KERI Reporting Station
Overcast Overcast  
Wind Chill: 30°   Ceiling: 2700
Heat Index: 35°   Visibility: 10mi
Dew Point: 24°   Wind: 6mph
Humidity: 64%   Direction: 210°SSW
Pressure: 30.21"   Gusts: NA
Location:  41.9°N, 79.74°W
Report Text: KERI 260351Z 21005KT 10SM OVC027 02/M04 A3021 RMK AO2 SLP236 T00171044
Loading
Personal Weather Stations






























Interactive Weather Map New forecast layout! Learn more

10-Day Weather Forecast

Advertisements
Track Severe Weather on mobile